createdAt,value
2022-11-29T00:02:17.726Z,4.200745
2022-11-29T00:05:42.853Z,4.230957
2022-11-29T00:09:08.077Z,4.230957
2022-11-29T00:12:33.315Z,4.241028
2022-11-29T00:15:58.512Z,4.291382
2022-11-29T00:19:23.737Z,4.341736
2022-11-29T00:22:48.960Z,4.371948
2022-11-29T00:26:14.148Z,4.341736
2022-11-29T00:29:39.410Z,4.422302
2022-11-29T00:33:04.610Z,4.412231
2022-11-29T00:36:29.823Z,4.422302
2022-11-29T00:39:55.061Z,4.371948
2022-11-29T00:43:20.284Z,4.422302
2022-11-29T00:46:45.538Z,4.482727
2022-11-29T00:50:10.730Z,4.402161
2022-11-29T00:53:35.947Z,4.402161
2022-11-29T00:57:01.164Z,4.452515
2022-11-29T01:00:26.386Z,4.543152
2022-11-29T01:03:51.629Z,4.371948
2022-11-29T01:07:16.865Z,4.371948
2022-11-29T01:10:42.032Z,4.321594
2022-11-29T01:14:07.263Z,4.27124
2022-11-29T01:17:32.483Z,4.321594
2022-11-29T01:20:57.722Z,4.412231
2022-11-29T01:24:22.922Z,4.341736
2022-11-29T01:27:48.152Z,4.422302
2022-11-29T01:31:13.384Z,4.482727
2022-11-29T01:34:38.596Z,4.512939
2022-11-29T01:38:03.831Z,4.623718
2022-11-29T01:41:29.019Z,4.674072
2022-11-29T01:44:54.220Z,4.674072
2022-11-29T01:48:19.444Z,4.674072
2022-11-29T01:51:44.643Z,4.694214
2022-11-29T01:55:09.893Z,4.784851
2022-11-29T01:58:35.076Z,4.804993
2022-11-29T02:02:00.280Z,4.815063
2022-11-29T02:05:25.502Z,4.734497
2022-11-29T02:08:50.706Z,4.77478
2022-11-29T02:12:15.956Z,4.754639
2022-11-29T02:15:41.226Z,4.724426
2022-11-29T02:19:06.394Z,4.704285
2022-11-29T02:22:31.609Z,4.674072
2022-11-29T02:25:56.815Z,4.734497
2022-11-29T02:29:22.065Z,4.734497
2022-11-29T02:32:47.249Z,4.754639
2022-11-29T02:36:12.456Z,4.734497
2022-11-29T02:39:37.751Z,4.734497
2022-11-29T02:43:02.910Z,4.754639
2022-11-29T02:46:28.195Z,4.724426
2022-11-29T02:49:53.342Z,4.664001
2022-11-29T02:53:18.571Z,4.633789
2022-11-29T02:56:43.803Z,4.593506
2022-11-29T03:00:09.042Z,4.593506
2022-11-29T03:03:34.302Z,4.583435
2022-11-29T03:06:59.474Z,4.593506
2022-11-29T03:10:24.689Z,4.593506
2022-11-29T03:13:49.897Z,4.603577
2022-11-29T03:17:15.089Z,4.593506
2022-11-29T03:20:40.326Z,4.593506
2022-11-29T03:24:05.502Z,4.603577
2022-11-29T03:27:30.706Z,4.664001
2022-11-29T03:30:55.970Z,4.704285
2022-11-29T03:34:21.132Z,4.754639
2022-11-29T03:37:46.383Z,4.754639
2022-11-29T03:41:11.593Z,4.77478
2022-11-29T03:44:36.826Z,4.734497
2022-11-29T03:48:02.005Z,4.77478
2022-11-29T03:51:27.211Z,4.754639
2022-11-29T03:54:52.456Z,4.593506
2022-11-29T03:58:17.652Z,4.52301
2022-11-29T04:01:42.871Z,4.553223
2022-11-29T04:05:08.067Z,4.623718
2022-11-29T04:08:33.293Z,4.553223
2022-11-29T04:11:58.525Z,4.553223
2022-11-29T04:15:23.719Z,4.52301
2022-11-29T04:18:48.937Z,4.482727
2022-11-29T04:22:14.142Z,4.452515
2022-11-29T04:25:39.352Z,4.502869
2022-11-29T04:29:04.577Z,4.52301
2022-11-29T04:32:29.766Z,4.603577
2022-11-29T04:35:55.022Z,4.653931
2022-11-29T04:39:20.228Z,4.674072
2022-11-29T04:42:45.442Z,4.674072
2022-11-29T04:46:10.786Z,4.603577
2022-11-29T04:49:35.860Z,4.472656
2022-11-29T04:53:01.070Z,4.472656
2022-11-29T04:56:26.254Z,4.472656
2022-11-29T04:59:51.477Z,4.412231
2022-11-29T05:03:16.753Z,4.361877
2022-11-29T05:06:41.930Z,4.341736
2022-11-29T05:10:08.150Z,4.331665
2022-11-29T05:13:35.933Z,4.321594
2022-11-29T05:17:01.124Z,4.241028
2022-11-29T05:20:26.806Z,4.200745
2022-11-29T05:23:51.994Z,4.180603
2022-11-29T05:27:17.220Z,4.220886
2022-11-29T05:30:42.461Z,4.200745
2022-11-29T05:34:07.704Z,4.230957
2022-11-29T05:37:32.912Z,4.341736
2022-11-29T05:40:58.109Z,4.331665
2022-11-29T05:44:23.314Z,4.331665
2022-11-29T05:47:48.539Z,4.331665
2022-11-29T05:51:13.741Z,4.27124
2022-11-29T05:54:39.006Z,4.331665
2022-11-29T05:58:04.222Z,4.331665
2022-11-29T06:01:29.518Z,4.230957
2022-11-29T06:04:54.669Z,4.200745
2022-11-29T06:08:19.862Z,4.220886
2022-11-29T06:11:45.080Z,4.241028
2022-11-29T06:15:10.254Z,4.220886
2022-11-29T06:18:35.488Z,4.230957
2022-11-29T06:22:00.699Z,4.160461
2022-11-29T06:25:25.904Z,4.200745
2022-11-29T06:28:51.153Z,4.230957
2022-11-29T06:32:16.327Z,4.27124
2022-11-29T06:35:41.585Z,4.241028
2022-11-29T06:39:06.800Z,4.220886
2022-11-29T06:42:31.983Z,4.301453
2022-11-29T06:45:57.221Z,4.331665
2022-11-29T06:49:22.421Z,4.361877
2022-11-29T06:52:47.633Z,4.361877
2022-11-29T06:56:12.851Z,4.361877
2022-11-29T06:59:38.054Z,4.402161
2022-11-29T07:03:03.310Z,4.341736
2022-11-29T07:06:28.465Z,4.301453
2022-11-29T07:09:53.686Z,4.321594
2022-11-29T07:13:18.898Z,4.321594
2022-11-29T07:16:44.099Z,4.301453
2022-11-29T07:20:09.337Z,4.331665
2022-11-29T07:23:34.529Z,4.361877
2022-11-29T07:26:59.933Z,4.422302
2022-11-29T07:30:24.955Z,4.412231
2022-11-29T07:33:50.150Z,4.402161
2022-11-29T07:37:15.367Z,4.402161
2022-11-29T07:40:40.531Z,4.482727
2022-11-29T07:44:05.723Z,4.52301
2022-11-29T07:47:35.410Z,4.512939
2022-11-29T07:50:56.107Z,4.583435
2022-11-29T07:54:22.194Z,4.593506
2022-11-29T07:57:46.531Z,4.633789
2022-11-29T08:01:11.843Z,4.694214
2022-11-29T08:04:36.912Z,4.734497
2022-11-29T08:08:02.133Z,4.815063
2022-11-29T08:11:27.312Z,4.875488
2022-11-29T08:14:52.505Z,4.956055
2022-11-29T08:18:17.738Z,4.996338
2022-11-29T08:21:42.926Z,4.875488
2022-11-29T08:25:08.170Z,4.915771
2022-11-29T08:28:33.406Z,4.956055
2022-11-29T08:31:58.614Z,4.956055
2022-11-29T08:35:23.809Z,5.02655
2022-11-29T08:38:49.015Z,5.066833
2022-11-29T08:42:14.213Z,5.066833
2022-11-29T08:45:39.455Z,5.127258
2022-11-29T08:49:04.599Z,5.066833
2022-11-29T08:52:29.792Z,5.086975
2022-11-29T08:55:54.994Z,5.097046
2022-11-29T08:59:20.201Z,5.127258
2022-11-29T09:02:45.448Z,5.02655
2022-11-29T09:06:12.418Z,4.996338
2022-11-29T09:09:35.840Z,5.016479
2022-11-29T09:13:01.026Z,5.016479
2022-11-29T09:16:26.248Z,5.117188
2022-11-29T09:19:51.489Z,5.1474
2022-11-29T09:23:16.693Z,5.167542
2022-11-29T09:26:41.879Z,5.248108
2022-11-29T09:30:07.068Z,5.308533
2022-11-29T09:33:32.278Z,5.419312
2022-11-29T09:36:57.522Z,5.419312
2022-11-29T09:40:22.672Z,5.429382
2022-11-29T09:43:47.878Z,5.489807
2022-11-29T09:47:13.091Z,5.560303
2022-11-29T09:50:38.319Z,5.600586
2022-11-29T09:54:03.547Z,5.711365
2022-11-29T09:57:28.726Z,5.711365
2022-11-29T10:00:53.966Z,5.570374
2022-11-29T10:04:19.179Z,5.489807
2022-11-29T10:07:44.398Z,5.489807
2022-11-29T10:11:09.664Z,5.449524
2022-11-29T10:14:34.830Z,5.600586
2022-11-29T10:18:00.031Z,5.711365
2022-11-29T10:21:25.230Z,5.791931
2022-11-29T10:24:50.468Z,5.791931
2022-11-29T10:28:15.746Z,5.812073
2022-11-29T10:31:40.966Z,5.751648
2022-11-29T10:35:06.218Z,5.721436
2022-11-29T10:38:32.022Z,5.671082
2022-11-29T10:41:56.639Z,5.671082
2022-11-29T10:45:21.907Z,5.711365
2022-11-29T10:48:47.105Z,5.791931
2022-11-29T10:52:12.316Z,5.791931
2022-11-29T10:55:37.530Z,5.751648
2022-11-29T10:59:02.753Z,5.751648
2022-11-29T11:02:28.039Z,5.791931
2022-11-29T11:05:53.236Z,5.721436
2022-11-29T11:09:18.421Z,5.812073
2022-11-29T11:12:43.637Z,5.822144
2022-11-29T11:16:08.855Z,5.892639
2022-11-29T11:19:34.111Z,5.912781
2022-11-29T11:22:59.285Z,5.832214
2022-11-29T11:26:24.485Z,5.741577
2022-11-29T11:29:49.724Z,5.761719
2022-11-29T11:33:14.950Z,5.721436
2022-11-29T11:36:40.209Z,5.78186
2022-11-29T11:40:05.461Z,5.78186
2022-11-29T11:43:30.652Z,5.791931
2022-11-29T11:46:55.873Z,5.761719
2022-11-29T11:50:21.104Z,5.832214
2022-11-29T11:53:46.357Z,5.862427
2022-11-29T11:57:11.545Z,5.852356
2022-11-29T12:01:02.196Z,5.90271
2022-11-29T12:04:02.075Z,5.90271
2022-11-29T12:07:45.407Z,5.963135
2022-11-29T12:10:52.534Z,5.932922
2022-11-29T12:14:17.753Z,5.942993
2022-11-29T12:17:42.972Z,5.90271
2022-11-29T12:21:08.190Z,5.832214
2022-11-29T12:24:33.427Z,5.822144
2022-11-29T12:27:58.703Z,5.812073
2022-11-29T12:31:23.924Z,5.892639
2022-11-29T12:34:49.512Z,5.852356
2022-11-29T12:38:14.348Z,5.812073
2022-11-29T12:41:39.555Z,5.741577
2022-11-29T12:45:04.797Z,5.741577
2022-11-29T12:48:29.963Z,5.751648
2022-11-29T12:51:55.166Z,5.721436
2022-11-29T12:55:20.374Z,5.751648
2022-11-29T12:58:46.317Z,5.832214
2022-11-29T13:02:10.920Z,5.892639
2022-11-29T13:05:36.097Z,5.90271
2022-11-29T13:09:01.315Z,5.912781
2022-11-29T13:12:26.540Z,5.932922
2022-11-29T13:15:51.770Z,5.862427
2022-11-29T13:19:16.990Z,5.90271
2022-11-29T13:22:42.185Z,5.932922
2022-11-29T13:26:07.395Z,6.003418
2022-11-29T13:29:32.612Z,6.083984
2022-11-29T13:32:57.842Z,6.15448
2022-11-29T13:36:23.094Z,6.184692
2022-11-29T13:39:48.282Z,6.184692
2022-11-29T13:43:13.494Z,6.114197
2022-11-29T13:46:38.783Z,6.083984
2022-11-29T13:50:03.982Z,6.114197
2022-11-29T13:53:29.323Z,6.063843
2022-11-29T13:56:54.419Z,5.993347
2022-11-29T14:00:19.626Z,6.003418
2022-11-29T14:03:44.882Z,5.942993
2022-11-29T14:07:10.112Z,5.912781
2022-11-29T14:10:35.367Z,5.862427
2022-11-29T14:14:00.566Z,5.812073
2022-11-29T14:17:25.827Z,5.751648
2022-11-29T14:20:51.015Z,5.711365
2022-11-29T14:24:16.259Z,5.671082
2022-11-29T14:27:41.542Z,5.671082
2022-11-29T15:05:04.205Z,5.78186
2022-11-29T15:08:29.469Z,5.751648
2022-11-29T15:11:54.842Z,5.741577
2022-11-29T15:15:20.139Z,5.711365
2022-11-29T15:18:45.532Z,5.65094
2022-11-29T15:22:10.918Z,5.681152
2022-11-29T15:25:36.130Z,5.610657
2022-11-29T15:29:01.460Z,5.580444
2022-11-29T15:32:26.807Z,5.570374
2022-11-29T15:35:52.096Z,5.570374
2022-11-29T15:39:17.451Z,5.640869
2022-11-29T15:42:42.838Z,5.751648
2022-11-29T15:46:08.127Z,5.791931
2022-11-29T15:49:33.475Z,5.791931
2022-11-29T15:52:58.762Z,5.751648
2022-11-29T15:56:24.080Z,5.812073
2022-11-29T15:59:49.382Z,5.862427
2022-11-29T16:03:14.677Z,5.912781
2022-11-29T16:06:39.977Z,5.942993
2022-11-29T16:10:05.345Z,5.973206
2022-11-29T16:13:30.752Z,6.03363
2022-11-29T16:16:56.074Z,6.003418
2022-11-29T16:20:21.370Z,5.973206
2022-11-29T16:23:46.702Z,5.963135
2022-11-29T16:27:12.050Z,6.003418
2022-11-29T16:30:37.508Z,6.013489
2022-11-29T16:34:02.843Z,6.03363
2022-11-29T16:37:28.146Z,6.003418
2022-11-29T16:40:53.463Z,6.013489
2022-11-29T16:44:18.833Z,6.003418
2022-11-29T16:47:45.358Z,6.03363
2022-11-29T16:51:09.411Z,5.993347
2022-11-29T16:54:34.745Z,5.942993
2022-11-29T16:58:00.063Z,5.973206
2022-11-29T17:01:25.421Z,5.993347
2022-11-29T17:04:50.637Z,5.942993
2022-11-29T17:08:15.848Z,5.822144
2022-11-29T17:11:41.104Z,5.751648
2022-11-29T17:15:06.350Z,5.761719
2022-11-29T17:18:31.783Z,5.751648
2022-11-29T17:21:57.087Z,5.78186
2022-11-29T17:25:22.375Z,5.711365
2022-11-29T17:28:47.634Z,5.751648
2022-11-29T17:32:12.929Z,5.751648
2022-11-29T17:35:38.192Z,5.711365
2022-11-29T17:39:03.512Z,5.630798
2022-11-29T17:42:28.711Z,5.580444
2022-11-29T17:45:54.049Z,5.630798
2022-11-29T17:49:19.271Z,5.600586
2022-11-29T17:52:44.517Z,5.630798
2022-11-29T17:56:09.847Z,5.711365
2022-11-29T17:59:35.123Z,5.741577
2022-11-29T18:03:00.432Z,5.761719
2022-11-29T18:06:25.670Z,5.671082
2022-11-29T18:09:50.947Z,5.600586
2022-11-29T18:13:16.255Z,5.65094
2022-11-29T18:16:42.385Z,5.671082
2022-11-29T18:20:07.625Z,5.721436
2022-11-29T18:23:32.976Z,5.791931
2022-11-29T18:26:58.245Z,5.832214
2022-11-29T18:30:23.620Z,5.822144
2022-11-29T18:33:48.813Z,5.832214
2022-11-29T18:37:20.597Z,5.832214
2022-11-29T18:40:39.430Z,5.832214
2022-11-29T18:44:04.736Z,5.892639
2022-11-29T18:47:30.054Z,5.832214
2022-11-29T18:50:55.353Z,5.852356
2022-11-29T18:54:20.606Z,5.822144
2022-11-29T18:57:45.833Z,5.791931
2022-11-29T19:01:11.141Z,5.812073
2022-11-29T19:04:36.338Z,5.832214
2022-11-29T19:08:01.677Z,5.791931
2022-11-29T19:11:26.818Z,5.78186
2022-11-29T19:14:52.350Z,5.751648
2022-11-29T19:18:17.373Z,5.711365
2022-11-29T19:21:42.652Z,5.630798
2022-11-29T19:25:07.895Z,5.610657
2022-11-29T19:28:33.139Z,5.610657
2022-11-29T19:31:58.402Z,5.630798
2022-11-29T19:35:23.698Z,5.65094
2022-11-29T19:38:53.317Z,5.751648
2022-11-29T19:42:14.245Z,5.791931
2022-11-29T19:45:40.155Z,5.832214
2022-11-29T19:49:05.413Z,5.832214
2022-11-29T19:52:30.653Z,5.761719
2022-11-29T19:55:55.935Z,5.791931
2022-11-29T19:59:21.144Z,5.78186
2022-11-29T20:02:46.473Z,5.78186
2022-11-29T20:06:11.665Z,5.761719
2022-11-29T20:09:36.945Z,5.78186
2022-11-29T20:13:02.222Z,5.721436
2022-11-29T20:16:27.466Z,5.721436
2022-11-29T20:19:52.781Z,5.761719
2022-11-29T20:23:17.997Z,5.711365
2022-11-29T20:26:43.229Z,5.741577
2022-11-29T20:30:08.479Z,5.751648
2022-11-29T20:33:33.764Z,5.681152
2022-11-29T20:36:59.048Z,5.610657
2022-11-29T20:40:24.271Z,5.600586
2022-11-29T20:43:49.499Z,5.610657
2022-11-29T20:47:14.745Z,5.65094
2022-11-29T20:50:39.960Z,5.711365
2022-11-29T20:54:05.209Z,5.681152
2022-11-29T20:57:30.445Z,5.681152
2022-11-29T21:00:55.691Z,5.681152
2022-11-29T21:04:23.485Z,5.681152
2022-11-29T21:07:46.169Z,5.580444
2022-11-29T21:11:11.389Z,5.489807
2022-11-29T21:14:36.623Z,5.419312
2022-11-29T21:18:01.849Z,5.389099
2022-11-29T21:21:27.104Z,5.348816
2022-11-29T21:24:52.259Z,5.298462
2022-11-29T21:28:17.482Z,5.298462
2022-11-29T21:31:42.754Z,5.328674
2022-11-29T21:35:07.926Z,5.389099
2022-11-29T21:38:33.169Z,5.348816
2022-11-29T21:41:58.355Z,5.39917
2022-11-29T21:45:23.584Z,5.358887
2022-11-29T21:48:48.799Z,5.328674
2022-11-29T21:52:17.774Z,5.27832
2022-11-29T21:55:39.290Z,5.308533
2022-11-29T21:59:04.480Z,5.238037
2022-11-29T22:02:29.790Z,5.167542
2022-11-29T22:05:54.935Z,5.097046
2022-11-29T22:09:20.178Z,5.097046
2022-11-29T22:12:51.792Z,5.066833
2022-11-29T22:16:10.663Z,5.066833
2022-11-29T22:19:35.866Z,5.117188
2022-11-29T22:23:01.077Z,5.177612
2022-11-29T22:26:26.289Z,5.207825
2022-11-29T22:29:51.544Z,5.238037
2022-11-29T22:33:16.728Z,5.207825
2022-11-29T22:36:41.961Z,5.1474
2022-11-29T22:40:07.192Z,5.036621
2022-11-29T22:43:32.425Z,5.036621
2022-11-29T22:46:57.722Z,5.177612
2022-11-29T22:50:22.872Z,5.26825
2022-11-29T22:53:48.083Z,5.348816
2022-11-29T22:57:13.328Z,5.389099
2022-11-29T23:00:38.604Z,5.298462
2022-11-29T23:04:03.775Z,5.248108
2022-11-29T23:07:28.967Z,5.177612
2022-11-29T23:10:54.153Z,5.036621
2022-11-29T23:14:19.370Z,4.935913
2022-11-29T23:17:44.651Z,4.77478
2022-11-29T23:21:09.910Z,4.754639
2022-11-29T23:24:35.087Z,4.734497
2022-11-29T23:28:00.314Z,4.734497
2022-11-29T23:31:25.611Z,4.754639
2022-11-29T23:34:50.773Z,4.784851
2022-11-29T23:38:16.030Z,4.815063
2022-11-29T23:41:41.229Z,4.804993
2022-11-29T23:45:06.462Z,4.905701
2022-11-29T23:48:31.680Z,4.966125
2022-11-29T23:51:56.895Z,5.036621
2022-11-29T23:55:22.133Z,5.097046
2022-11-29T23:58:47.326Z,4.956055
